Time;durP1;ratioP1;P1;durP2;ratioP2;P2;SDS_P1;SDS_P2;PMS_P1;PMS_P2;Temp;Humidity;BMP_temperature;BMP_pressure;BME280_temperature;BME280_humidity;BME280_pressure;Samples;Min_cycle;Max_cycle;Signal;HPM_P1;HPM_P2
2021/07/31 00:00:27;;;;;;;6.22;3.47;;;;;;;16.84;100.00;100164.88;1758574;80;21099;-88
2021/07/31 00:02:53;;;;;;;5.33;3.50;;;;;;;16.80;100.00;100159.80;1754421;81;21007;-92
2021/07/31 00:05:20;;;;;;;4.55;2.70;;;;;;;16.75;100.00;100165.69;1754405;81;21050;-87
2021/07/31 00:07:47;;;;;;;3.98;2.52;;;;;;;16.71;100.00;100163.33;1727126;81;21042;-87
2021/07/31 00:10:13;;;;;;;2.67;2.25;;;;;;;16.68;100.00;100161.23;1770043;80;21013;-91
2021/07/31 00:12:41;;;;;;;2.90;2.10;;;;;;;16.62;100.00;100161.17;1793809;80;21071;-92
2021/07/31 00:15:09;;;;;;;2.85;2.20;;;;;;;16.58;100.00;100157.44;1794087;80;21064;-91
2021/07/31 00:17:36;;;;;;;4.40;2.55;;;;;;;16.54;100.00;100165.57;1782469;78;21536;-87
2021/07/31 00:20:03;;;;;;;3.25;2.65;;;;;;;16.52;100.00;100164.28;1717902;82;20990;-91
2021/07/31 00:22:30;;;;;;;5.35;3.50;;;;;;;16.51;100.00;100158.50;1733241;82;21107;-88
2021/07/31 00:24:57;;;;;;;4.70;3.47;;;;;;;16.49;100.00;100166.28;1749055;82;21009;-87
2021/07/31 00:27:25;;;;;;;7.45;3.80;;;;;;;16.46;100.00;100160.05;1730596;82;21104;-87
2021/07/31 00:29:52;;;;;;;4.42;2.87;;;;;;;16.44;100.00;100163.13;1730527;81;21056;-91
2021/07/31 00:32:31;;;;;;;3.67;2.75;;;;;;;16.42;100.00;100161.83;1731728;82;21128;-87
2021/07/31 00:34:57;;;;;;;4.42;3.20;;;;;;;16.40;100.00;100158.03;1730975;82;21025;-87
2021/07/31 00:37:24;;;;;;;4.50;3.40;;;;;;;16.37;100.00;100164.20;1730712;81;21099;-87
2021/07/31 00:39:52;;;;;;;5.90;3.25;;;;;;;16.36;100.00;100163.14;1730588;82;21040;-91
2021/07/31 00:42:18;;;;;;;5.78;3.25;;;;;;;16.34;100.00;100164.30;1754705;80;21254;-92
2021/07/31 00:44:45;;;;;;;4.20;2.90;;;;;;;16.34;100.00;100160.70;1785159;80;21002;-91
2021/07/31 00:47:13;;;;;;;4.65;3.00;;;;;;;16.33;100.00;100161.27;1748625;80;21059;-87
2021/07/31 00:49:39;;;;;;;5.10;3.45;;;;;;;16.31;100.00;100160.78;1772940;80;21103;-91
2021/07/31 00:52:07;;;;;;;9.65;3.42;;;;;;;16.31;100.00;100155.27;1744992;80;21517;-87
2021/07/31 00:54:34;;;;;;;6.17;3.70;;;;;;;16.32;100.00;100158.86;1774548;80;20950;-87
2021/07/31 00:57:01;;;;;;;6.47;3.17;;;;;;;16.33;100.00;100157.14;1726742;81;21467;-92
2021/07/31 00:59:30;;;;;;;4.72;2.85;;;;;;;16.34;100.00;100155.19;1753412;81;21036;-87
2021/07/31 01:01:57;;;;;;;5.72;3.05;;;;;;;16.34;100.00;100154.64;1725161;81;21023;-87
2021/07/31 01:04:24;;;;;;;5.70;3.45;;;;;;;16.34;100.00;100149.13;1731285;81;21168;-91
2021/07/31 01:06:51;;;;;;;3.50;2.47;;;;;;;16.34;100.00;100158.78;1771763;79;21034;-87
2021/07/31 01:09:17;;;;;;;2.80;1.98;;;;;;;16.32;100.00;100156.91;1783862;80;21022;-91
2021/07/31 01:11:46;;;;;;;3.40;2.22;;;;;;;16.27;100.00;100152.10;1782679;79;21034;-91
2021/07/31 01:14:13;;;;;;;3.98;2.70;;;;;;;16.20;100.00;100148.48;1763648;80;21140;-87
2021/07/31 01:16:40;;;;;;;5.17;2.70;;;;;;;16.17;100.00;100155.19;1783096;80;21073;-87
2021/07/31 01:19:09;;;;;;;4.17;2.80;;;;;;;16.15;100.00;100152.77;1784018;80;21261;-87
2021/07/31 01:21:39;;;;;;;4.55;2.60;;;;;;;16.11;100.00;100152.59;1783363;80;21025;-88
2021/07/31 01:24:24;;;;;;;3.77;2.87;;;;;;;16.08;100.00;100149.69;1787322;80;21378;-87
2021/07/31 01:26:52;;;;;;;4.17;2.83;;;;;;;16.06;100.00;100145.06;1777262;79;21006;-91
2021/07/31 01:29:18;;;;;;;4.35;3.00;;;;;;;16.07;100.00;100148.05;1777488;79;21579;-87
2021/07/31 01:31:45;;;;;;;6.10;2.80;;;;;;;16.05;100.00;100146.20;1777236;79;21043;-91
2021/07/31 01:34:12;;;;;;;3.42;2.77;;;;;;;16.04;100.00;100151.45;1783430;80;21025;-87
2021/07/31 01:36:41;;;;;;;4.35;3.00;;;;;;;16.04;100.00;100150.08;1782653;79;21525;-87
2021/07/31 01:39:09;;;;;;;5.15;2.87;;;;;;;16.03;100.00;100142.39;1782876;80;21562;-91
2021/07/31 01:41:37;;;;;;;9.25;3.52;;;;;;;16.00;100.00;100142.20;1748580;80;21508;-87
2021/07/31 01:44:04;;;;;;;6.62;2.80;;;;;;;15.97;100.00;100145.61;1778486;80;20940;-92
2021/07/31 01:46:32;;;;;;;4.42;3.02;;;;;;;15.94;100.00;100142.13;1783193;79;21046;-87
2021/07/31 01:48:58;;;;;;;4.20;2.75;;;;;;;15.91;100.00;100145.77;1754479;80;21955;-87
2021/07/31 01:51:27;;;;;;;5.45;2.95;;;;;;;15.90;100.00;100143.36;1750975;80;21024;-87
2021/07/31 01:53:53;;;;;;;3.22;2.25;;;;;;;15.88;100.00;100145.63;1741918;81;22323;-93
2021/07/31 01:56:20;;;;;;;5.65;3.67;;;;;;;15.85;100.00;100146.24;1784059;80;21037;-87
2021/07/31 01:58:47;;;;;;;5.05;2.75;;;;;;;15.85;100.00;100149.83;1784752;80;21021;-87
2021/07/31 02:01:14;;;;;;;4.03;2.42;;;;;;;15.80;100.00;100154.12;1787643;80;21016;-92
2021/07/31 02:03:42;;;;;;;3.58;2.50;;;;;;;15.76;100.00;100144.06;1777237;80;21104;-91
2021/07/31 02:06:27;;;;;;;3.72;2.80;;;;;;;15.73;100.00;100153.78;1777175;79;21006;-87
2021/07/31 02:08:54;;;;;;;3.98;2.35;;;;;;;15.70;100.00;100155.78;1729079;82;21068;-88
2021/07/31 02:11:23;;;;;;;4.37;3.20;;;;;;;15.68;100.00;100151.95;1733108;82;21440;-88
2021/07/31 02:13:52;;;;;;;7.72;3.30;;;;;;;15.68;100.00;100155.28;1735272;82;21044;-91
2021/07/31 02:16:24;;;;;;;5.75;3.80;;;;;;;15.68;100.00;100156.66;1732810;80;21073;-88
2021/07/31 02:18:52;;;;;;;5.87;3.40;;;;;;;15.68;100.00;100160.79;1733217;81;21147;-87
2021/07/31 02:21:19;;;;;;;5.15;3.17;;;;;;;15.68;100.00;100154.70;1748714;82;21557;-87
2021/07/31 02:24:00;;;;;;;4.67;2.98;;;;;;;15.69;100.00;100159.64;1689515;82;21017;-87
2021/07/31 02:26:38;;;;;;;5.00;3.02;;;;;;;15.71;100.00;100169.00;1757504;80;21590;-87
2021/07/31 02:29:07;;;;;;;6.10;3.00;;;;;;;15.71;100.00;100168.44;1781795;80;21033;-87
2021/07/31 02:31:35;;;;;;;6.45;3.15;;;;;;;15.73;100.00;100171.69;1783455;80;20942;-91
2021/07/31 02:34:02;;;;;;;7.90;3.40;;;;;;;15.74;100.00;100162.84;1784570;80;21025;-91
2021/07/31 02:36:29;;;;;;;5.97;3.50;;;;;;;15.73;100.00;100166.17;1784416;80;21037;-86
2021/07/31 02:39:00;;;;;;;8.80;4.13;;;;;;;15.72;100.00;100177.50;1723821;80;21512;-87
2021/07/31 02:41:27;;;;;;;5.92;3.72;;;;;;;15.72;100.00;100178.31;1754419;80;21014;-92
2021/07/31 02:43:56;;;;;;;6.92;4.10;;;;;;;15.74;100.00;100189.83;1783166;80;21548;-87
2021/07/31 02:46:23;;;;;;;5.65;3.37;;;;;;;15.75;100.00;100180.45;1783206;80;21567;-91
2021/07/31 02:48:52;;;;;;;5.15;3.12;;;;;;;15.76;100.00;100190.32;1755213;80;21088;-92
2021/07/31 02:51:19;;;;;;;5.37;3.45;;;;;;;15.80;100.00;100181.67;1783173;80;21080;-87
2021/07/31 02:54:02;;;;;;;6.40;4.03;;;;;;;15.85;100.00;100180.14;1753113;80;21029;-87
2021/07/31 02:56:32;;;;;;;6.28;3.70;;;;;;;15.90;100.00;100181.36;1783113;80;20986;-92
2021/07/31 02:59:00;;;;;;;4.72;3.47;;;;;;;15.94;100.00;100184.84;1784359;80;21689;-91
2021/07/31 03:01:27;;;;;;;5.92;3.40;;;;;;;15.96;100.00;100182.58;1783109;80;21311;-87
2021/07/31 03:03:55;;;;;;;5.45;3.62;;;;;;;15.96;100.00;100186.72;1783652;80;21424;-87
2021/07/31 03:06:22;;;;;;;4.17;3.22;;;;;;;15.99;100.00;100189.63;1783113;80;21021;-87
2021/07/31 03:08:50;;;;;;;5.87;3.60;;;;;;;16.00;100.00;100188.52;1783279;80;21058;-87
2021/07/31 03:11:18;;;;;;;7.00;3.72;;;;;;;16.05;100.00;100191.11;1783475;80;20946;-91
2021/07/31 03:13:46;;;;;;;6.67;4.33;;;;;;;16.12;100.00;100192.83;1783216;80;21034;-87
2021/07/31 03:16:13;;;;;;;8.23;4.53;;;;;;;16.24;100.00;100194.11;1783258;80;21009;-90
2021/07/31 03:18:43;;;;;;;7.10;4.15;;;;;;;16.33;100.00;100200.45;1785576;78;21088;-88
2021/07/31 03:21:11;;;;;;;8.75;4.55;;;;;;;16.44;100.00;100200.92;1786299;80;21049;-88
2021/07/31 03:23:58;;;;;;;7.60;4.33;;;;;;;16.55;100.00;100198.09;1787825;80;20958;-91
2021/07/31 03:26:25;;;;;;;5.28;3.37;;;;;;;16.69;100.00;100196.52;1786909;80;21029;-91
2021/07/31 03:28:52;;;;;;;10.28;4.20;;;;;;;16.80;100.00;100195.66;1786756;80;21048;-90
2021/07/31 03:31:20;;;;;;;6.00;3.62;;;;;;;16.92;100.00;100200.75;1786761;80;21017;-87
2021/07/31 03:33:48;;;;;;;5.47;3.12;;;;;;;17.04;100.00;100198.70;1786538;80;21041;-87
2021/07/31 03:36:16;;;;;;;7.75;4.03;;;;;;;17.16;100.00;100194.69;1786632;80;21036;-91
2021/07/31 03:39:00;;;;;;;4.87;3.52;;;;;;;17.27;100.00;100200.64;1787701;79;21025;-88
2021/07/31 03:41:27;;;;;;;5.97;3.42;;;;;;;17.39;100.00;100202.72;1786293;80;21001;-92
2021/07/31 03:43:55;;;;;;;4.55;3.05;;;;;;;17.50;100.00;100203.95;1760028;80;21052;-92
2021/07/31 03:46:22;;;;;;;4.75;3.83;;;;;;;17.62;100.00;100205.44;1786128;80;21017;-88
2021/07/31 03:48:50;;;;;;;5.40;3.67;;;;;;;17.76;100.00;100206.60;1762593;80;21645;-88
2021/07/31 03:51:17;;;;;;;5.45;3.50;;;;;;;17.91;100.00;100210.77;1788010;79;21075;-88
2021/07/31 03:53:45;;;;;;;6.37;3.30;;;;;;;18.05;100.00;100207.19;1786830;80;21024;-93
2021/07/31 03:56:13;;;;;;;4.37;3.12;;;;;;;18.20;100.00;100206.33;1786460;80;21037;-88
2021/07/31 03:58:42;;;;;;;3.87;3.02;;;;;;;18.34;100.00;100208.84;1786498;80;21009;-88
2021/07/31 04:01:08;;;;;;;7.10;3.27;;;;;;;18.46;100.00;100213.06;1787228;80;20997;-88
2021/07/31 04:03:35;;;;;;;6.92;3.67;;;;;;;18.59;100.00;100216.69;1786463;80;21044;-92
2021/07/31 04:06:02;;;;;;;5.53;3.37;;;;;;;18.70;100.00;100217.33;1786451;80;21064;-88
2021/07/31 04:08:44;;;;;;;6.00;3.60;;;;;;;18.80;100.00;100221.66;1786651;80;21044;-88
2021/07/31 04:11:29;;;;;;;5.90;3.35;;;;;;;18.91;100.00;100225.61;1786540;80;21028;-92
2021/07/31 04:14:14;;;;;;;4.28;2.70;;;;;;;19.07;100.00;100226.38;1787659;80;21041;-88
2021/07/31 04:16:44;;;;;;;9.58;4.03;;;;;;;19.21;100.00;100224.08;1784951;80;21555;-88
2021/07/31 04:19:12;;;;;;;4.47;2.58;;;;;;;19.33;100.00;100228.25;1783521;80;21016;-91
2021/07/31 04:21:40;;;;;;;4.75;3.47;;;;;;;19.46;100.00;100225.50;1783218;80;21040;-93
2021/07/31 04:24:09;;;;;;;6.22;3.33;;;;;;;19.63;100.00;100222.51;1783325;80;22194;-89
2021/07/31 04:26:35;;;;;;;4.83;3.15;;;;;;;19.81;100.00;100222.34;1785154;80;21025;-92
2021/07/31 04:29:02;;;;;;;5.90;3.67;;;;;;;20.15;100.00;100227.37;1783337;80;21087;-93
2021/07/31 04:31:28;;;;;;;4.40;3.00;;;;;;;20.15;100.00;100227.37;1783362;80;21017;-88
2021/07/31 04:33:56;;;;;;;4.87;3.15;;;;;;;20.34;100.00;100232.88;1783344;80;21468;-89
2021/07/31 04:36:22;;;;;;;4.00;2.52;;;;;;;20.54;100.00;100230.50;1783329;80;21063;-89
2021/07/31 04:38:49;;;;;;;4.35;3.17;;;;;;;20.73;100.00;100226.31;1785182;80;21507;-92
2021/07/31 04:41:16;;;;;;;5.37;2.65;;;;;;;20.89;100.00;100225.76;1783469;80;21081;-93
2021/07/31 04:43:42;;;;;;;6.50;3.30;;;;;;;21.08;100.00;100224.29;1783474;80;21435;-93
2021/07/31 04:46:09;;;;;;;4.95;2.85;;;;;;;21.25;100.00;100225.34;1783351;80;21647;-88
2021/07/31 04:48:36;;;;;;;4.33;2.80;;;;;;;21.43;100.00;100223.05;1783373;80;21041;-89
2021/07/31 04:51:03;;;;;;;6.60;2.90;;;;;;;21.62;100.00;100226.51;1784642;80;21109;-94
2021/07/31 04:53:31;;;;;;;5.25;2.92;;;;;;;21.82;100.00;100225.41;1783326;80;21072;-89
2021/07/31 04:55:58;;;;;;;3.00;2.25;;;;;;;22.04;100.00;100230.09;1783279;80;21070;-88
2021/07/31 04:58:24;;;;;;;4.87;2.70;;;;;;;22.23;100.00;100234.34;1783379;80;21040;-89
2021/07/31 05:00:51;;;;;;;3.33;2.33;;;;;;;22.40;100.00;100236.47;1783640;80;21016;-88
2021/07/31 05:03:18;;;;;;;3.83;2.90;;;;;;;22.54;99.42;100238.17;1755719;80;20990;-88
2021/07/31 05:05:45;;;;;;;3.83;2.02;;;;;;;22.70;97.80;100237.52;1784097;80;21044;-88
2021/07/31 05:08:13;;;;;;;3.10;2.17;;;;;;;22.85;95.11;100235.83;1748877;82;21067;-88
2021/07/31 05:19:26;;;;;;;4.50;1.92;;;;;;;23.49;88.96;100237.64;1829721;77;23199;-92
2021/07/31 05:21:56;;;;;;;3.00;1.87;;;;;;;23.59;88.29;100243.19;1783654;79;21069;-87
2021/07/31 05:24:23;;;;;;;2.95;2.22;;;;;;;23.74;86.76;100242.86;1780600;80;21033;-93
2021/07/31 05:26:50;;;;;;;3.15;2.37;;;;;;;23.87;86.05;100237.88;1780420;80;21005;-92
2021/07/31 05:29:16;;;;;;;3.75;2.77;;;;;;;24.00;84.61;100244.25;1749917;80;21037;-89
2021/07/31 05:31:43;;;;;;;6.17;2.58;;;;;;;24.12;83.00;100246.02;1781743;80;20975;-87
2021/07/31 05:34:10;;;;;;;2.90;2.33;;;;;;;24.24;82.49;100247.20;1780339;80;21017;-87
2021/07/31 05:36:39;;;;;;;3.67;2.37;;;;;;;24.36;81.45;100246.17;1746287;82;21021;-87
2021/07/31 05:39:06;;;;;;;3.90;2.52;;;;;;;24.46;80.86;100244.14;1708599;82;22051;-88
2021/07/31 05:41:33;;;;;;;5.62;2.77;;;;;;;24.60;80.73;100246.89;1747645;81;21029;-92
2021/07/31 05:43:59;;;;;;;6.70;2.55;;;;;;;24.75;79.26;100245.88;1739410;78;21079;-91
2021/07/31 05:46:26;;;;;;;3.85;2.37;;;;;;;24.85;78.37;100242.44;1740263;82;21638;-93
2021/07/31 05:48:54;;;;;;;5.20;2.15;;;;;;;24.98;77.55;100239.38;1709030;82;21083;-87
2021/07/31 05:51:20;;;;;;;2.67;1.85;;;;;;;25.10;77.05;100246.10;1738204;82;20992;-92
2021/07/31 05:53:46;;;;;;;3.37;2.00;;;;;;;25.20;76.38;100239.05;1739531;82;21014;-93
2021/07/31 05:56:14;;;;;;;3.33;2.55;;;;;;;25.31;76.19;100242.73;1738236;82;20995;-87
2021/07/31 05:58:41;;;;;;;2.60;2.00;;;;;;;25.46;76.40;100242.27;1716299;82;21009;-94
2021/07/31 06:01:08;;;;;;;4.97;2.30;;;;;;;25.64;75.41;100243.25;1738367;82;21036;-92
2021/07/31 06:03:35;;;;;;;3.10;1.95;;;;;;;25.78;75.26;100241.75;1738453;82;21547;-88
2021/07/31 06:06:01;;;;;;;2.95;2.45;;;;;;;25.93;75.00;100247.68;1739384;82;21646;-93
2021/07/31 06:08:29;;;;;;;3.62;2.58;;;;;;;26.06;74.10;100243.97;1738601;82;21294;-88
2021/07/31 06:11:04;;;;;;;2.95;2.30;;;;;;;26.22;74.89;100250.69;1738385;82;21145;-88
2021/07/31 06:13:31;;;;;;;3.90;2.37;;;;;;;26.43;74.82;100247.19;1745863;82;21339;-90
2021/07/31 06:15:58;;;;;;;2.90;2.05;;;;;;;26.68;74.17;100257.96;1738504;82;21076;-93
2021/07/31 06:18:25;;;;;;;2.75;1.75;;;;;;;26.87;73.31;100258.21;1739490;81;21045;-87
2021/07/31 06:20:52;;;;;;;5.60;2.35;;;;;;;27.05;72.72;100261.06;1738248;82;21048;-88
2021/07/31 06:23:18;;;;;;;3.30;2.25;;;;;;;27.25;72.12;100257.36;1738254;82;21160;-94
2021/07/31 06:25:45;;;;;;;3.02;1.90;;;;;;;27.43;71.66;100259.58;1738446;82;21085;-88
2021/07/31 06:28:12;;;;;;;2.55;1.77;;;;;;;27.58;69.52;100259.59;1738204;82;21044;-93
2021/07/31 06:30:38;;;;;;;4.35;2.35;;;;;;;27.60;68.77;100255.19;1738936;82;21638;-94
2021/07/31 06:33:05;;;;;;;2.35;1.62;;;;;;;27.68;69.42;100264.41;1687074;83;21069;-93
2021/07/31 06:35:31;;;;;;;2.95;2.05;;;;;;;27.81;68.96;100259.98;1738116;82;21044;-88
2021/07/31 06:37:58;;;;;;;2.17;1.95;;;;;;;28.00;67.87;100256.61;1745446;81;21084;-94
2021/07/31 06:40:24;;;;;;;2.45;1.85;;;;;;;28.22;67.08;100263.79;1738014;82;21056;-88
2021/07/31 06:42:51;;;;;;;4.62;2.15;;;;;;;28.34;65.71;100260.33;1747531;81;21044;-93
2021/07/31 06:45:18;;;;;;;4.80;1.90;;;;;;;28.43;66.08;100256.50;1737975;82;21084;-94
2021/07/31 06:47:44;;;;;;;2.00;1.72;;;;;;;28.60;64.98;100261.91;1737775;82;21662;-93
2021/07/31 06:50:11;;;;;;;4.70;2.10;;;;;;;28.72;64.15;100258.64;1738054;82;21045;-94
2021/07/31 06:52:38;;;;;;;3.30;2.12;;;;;;;28.77;64.05;100259.62;1737921;82;21096;-93
2021/07/31 06:55:06;;;;;;;1.92;1.75;;;;;;;28.82;63.79;100266.22;1739450;82;21060;-94
2021/07/31 06:57:32;;;;;;;3.22;1.87;;;;;;;28.88;63.74;100258.16;1737633;82;21017;-94
2021/07/31 06:59:59;;;;;;;3.33;2.12;;;;;;;28.97;62.97;100252.89;1738033;82;22153;-87
2021/07/31 07:02:25;;;;;;;3.52;2.12;;;;;;;29.08;63.14;100255.66;1737562;82;21057;-94
2021/07/31 07:04:52;;;;;;;2.80;1.72;;;;;;;29.21;62.86;100256.02;1737711;81;21065;-93
2021/07/31 07:07:20;;;;;;;2.17;1.82;;;;;;;29.38;62.76;100249.47;1738548;82;21053;-89
2021/07/31 07:09:47;;;;;;;2.00;1.77;;;;;;;29.53;61.70;100256.58;1737759;82;21492;-93
2021/07/31 07:12:13;;;;;;;2.67;1.95;;;;;;;29.59;60.80;100252.09;1737760;82;21053;-93
2021/07/31 07:14:40;;;;;;;3.75;1.75;;;;;;;29.71;59.91;100252.85;1737664;82;21037;-92
2021/07/31 07:17:06;;;;;;;2.75;2.10;;;;;;;29.76;57.71;100253.81;1737461;82;21103;-89
2021/07/31 07:19:33;;;;;;;1.67;1.50;;;;;;;29.70;57.71;100244.20;1739633;78;21044;-94
2021/07/31 07:22:00;;;;;;;2.02;1.50;;;;;;;29.73;58.46;100244.80;1737597;82;21048;-93
2021/07/31 07:24:27;;;;;;;2.65;2.00;;;;;;;29.84;55.98;100242.67;1737662;82;21591;-88
2021/07/31 07:26:54;;;;;;;2.85;1.77;;;;;;;29.91;55.86;100242.60;1737932;82;21622;-94
2021/07/31 07:29:20;;;;;;;1.77;1.50;;;;;;;30.01;54.17;100243.10;1738838;78;20974;-89
2021/07/31 07:31:47;;;;;;;3.92;2.00;;;;;;;30.13;53.54;100243.81;1737718;82;21091;-91
2021/07/31 07:34:13;;;;;;;2.55;1.60;;;;;;;30.26;52.74;100237.84;1737651;82;21092;-92
2021/07/31 07:36:40;;;;;;;2.55;1.90;;;;;;;30.27;52.59;100232.42;1751093;81;21041;-89
2021/07/31 07:39:06;;;;;;;2.60;1.60;;;;;;;30.25;51.66;100236.27;1711675;82;21146;-89
2021/07/31 07:41:33;;;;;;;2.58;1.65;;;;;;;30.31;51.79;100236.59;1753236;81;20997;-92
2021/07/31 07:44:00;;;;;;;2.20;1.40;;;;;;;30.45;52.60;100238.45;1708497;82;21060;-89
2021/07/31 07:46:26;;;;;;;2.10;1.50;;;;;;;30.61;50.92;100231.59;1708564;82;21056;-88
2021/07/31 07:48:53;;;;;;;1.72;1.50;;;;;;;30.61;50.49;100227.37;1737625;82;21507;-89
2021/07/31 07:51:19;;;;;;;2.40;1.77;;;;;;;30.70;51.39;100224.05;1731577;82;21052;-91
2021/07/31 07:53:46;;;;;;;1.98;1.50;;;;;;;30.92;51.00;100230.23;1709232;82;21048;-92
2021/07/31 07:56:12;;;;;;;2.17;1.60;;;;;;;31.01;50.23;100228.48;1738042;82;21075;-88
2021/07/31 07:58:38;;;;;;;0.95;0.90;;;;;;;30.99;48.80;100226.69;1731528;82;21068;-89
2021/07/31 08:01:10;;;;;;;3.27;1.82;;;;;;;31.11;49.64;100228.73;1737930;82;21056;-88
2021/07/31 08:03:36;;;;;;;;;;;;;;;31.32;48.40;100224.80;1741361;82;21013;-93
2021/07/31 08:06:03;;;;;;;2.35;1.37;;;;;;;31.58;48.04;100226.83;1737788;82;20203;-89
2021/07/31 08:08:29;;;;;;;2.47;1.60;;;;;;;31.65;47.35;100225.30;1737618;81;21096;-88
2021/07/31 08:10:57;;;;;;;1.65;1.42;;;;;;;31.67;46.46;100224.23;1737640;82;21107;-93
2021/07/31 08:13:23;;;;;;;2.05;1.37;;;;;;;31.68;46.22;100225.84;1723417;81;21079;-92
2021/07/31 08:15:52;;;;;;;3.00;1.98;;;;;;;31.79;46.88;100224.23;1710563;82;21057;-92
2021/07/31 08:18:18;;;;;;;2.35;1.67;;;;;;;31.97;46.51;100228.79;1693336;83;21104;-89
2021/07/31 08:20:45;;;;;;;1.65;1.50;;;;;;;32.04;46.37;100223.80;1754265;81;21040;-92
2021/07/31 08:23:11;;;;;;;2.25;1.75;;;;;;;32.17;45.39;100232.44;1724213;82;21257;-92
2021/07/31 08:34:24;;;;;;;2.52;1.50;;;;;;;32.30;41.60;100219.89;1849228;77;22637;-89
2021/07/31 08:36:50;;;;;;;2.10;1.50;;;;;;;32.18;42.07;100223.36;1776936;80;21033;-92
2021/07/31 08:39:17;;;;;;;1.82;1.50;;;;;;;32.13;41.54;100222.63;1764821;81;21064;-89
2021/07/31 08:41:47;;;;;;;1.90;1.45;;;;;;;32.15;41.15;100219.38;1764444;81;21044;-88
2021/07/31 08:44:16;;;;;;;2.80;1.70;;;;;;;31.97;41.19;100221.11;1765639;81;21485;-92
2021/07/31 08:46:42;;;;;;;2.55;1.60;;;;;;;31.80;42.06;100222.20;1764493;81;21103;-88
2021/07/31 08:49:09;;;;;;;2.58;1.55;;;;;;;31.79;42.02;100222.02;1764816;81;21530;-92
2021/07/31 08:51:36;;;;;;;2.10;1.50;;;;;;;31.92;42.55;100211.69;1764757;81;21061;-93
2021/07/31 08:54:02;;;;;;;1.98;1.50;;;;;;;32.08;43.07;100217.48;1736817;81;21535;-93
2021/07/31 08:56:29;;;;;;;1.98;1.60;;;;;;;32.24;42.26;100220.99;1766604;81;21076;-91
2021/07/31 08:58:59;;;;;;;1.92;1.70;;;;;;;32.41;41.01;100217.63;1701900;82;21069;-90
2021/07/31 09:01:25;;;;;;;2.00;1.50;;;;;;;32.53;41.00;100215.59;1737366;81;21075;-89
2021/07/31 09:09:27;;;;;;;3.55;1.50;;;;;;;32.66;37.77;100215.72;1830802;77;22609;-88
2021/07/31 09:11:58;;;;;;;2.42;1.50;;;;;;;32.39;36.88;100219.30;1784276;79;21532;-89
2021/07/31 09:14:25;;;;;;;2.45;1.37;;;;;;;32.29;37.82;100221.11;1746320;82;21071;-89
2021/07/31 09:16:53;;;;;;;3.80;2.35;;;;;;;32.33;37.28;100211.33;1716069;83;21544;-89
2021/07/31 09:19:20;;;;;;;1.50;1.40;;;;;;;32.41;38.08;100211.98;1739481;82;21071;-88
2021/07/31 09:21:48;;;;;;;2.37;1.80;;;;;;;32.29;37.97;100212.63;1738413;82;21060;-89
2021/07/31 09:24:19;;;;;;;2.65;2.00;;;;;;;32.19;38.66;100205.95;1738495;82;21060;-92
2021/07/31 09:26:52;;;;;;;;;;;;;;;32.17;38.49;100213.27;1688638;83;21426;-92
2021/07/31 09:29:32;;;;;;;2.40;2.10;;;;;;;31.96;39.16;100213.08;1716132;83;20256;-90
2021/07/31 09:32:05;;;;;;;1.47;1.37;;;;;;;31.93;40.06;100204.82;1739170;78;20977;-92
2021/07/31 09:34:46;;;;;;;2.25;2.00;;;;;;;32.07;39.73;100203.77;1742751;77;21080;-90
2021/07/31 09:37:17;;;;;;;2.30;1.82;;;;;;;32.23;39.00;100207.31;1738816;82;21098;-92
2021/07/31 09:40:03;;;;;;;2.10;1.70;;;;;;;32.21;39.11;100214.02;1738894;82;21080;-89
2021/07/31 09:42:37;;;;;;;2.58;1.52;;;;;;;32.26;38.76;100212.09;1738943;82;21303;-90
2021/07/31 09:45:15;;;;;;;1.90;1.72;;;;;;;32.29;38.44;100207.77;1716527;82;21141;-93
2021/07/31 09:48:01;;;;;;;2.30;1.70;;;;;;;32.28;38.56;100206.18;1715406;83;22132;-93
2021/07/31 09:50:47;;;;;;;2.70;1.90;;;;;;;32.36;38.86;100208.25;1738407;82;21541;-90
2021/07/31 09:53:17;;;;;;;1.90;1.67;;;;;;;32.43;38.58;100212.34;1739272;82;21326;-92
2021/07/31 09:55:52;;;;;;;3.02;2.20;;;;;;;32.32;38.19;100206.09;1738039;82;21693;-92
2021/07/31 09:58:20;;;;;;;2.20;1.50;;;;;;;32.12;38.80;100199.84;1738239;82;21143;-92
2021/07/31 10:00:48;;;;;;;2.05;1.25;;;;;;;32.02;37.96;100202.23;1738349;82;21099;-89
2021/07/31 10:03:14;;;;;;;3.35;1.60;;;;;;;31.88;38.04;100203.91;1710399;82;21060;-90
2021/07/31 10:05:44;;;;;;;3.58;1.50;;;;;;;31.80;37.53;100200.42;1738027;82;21599;-90
2021/07/31 10:08:11;;;;;;;1.57;1.40;;;;;;;31.80;38.63;100197.59;1738181;81;21491;-89
2021/07/31 10:10:39;;;;;;;2.22;1.75;;;;;;;31.74;38.05;100197.89;1738311;82;21393;-89
2021/07/31 10:13:06;;;;;;;2.55;1.62;;;;;;;31.85;38.24;100194.86;1716992;82;21294;-89
2021/07/31 10:15:35;;;;;;;3.27;1.65;;;;;;;31.95;38.46;100192.51;1739274;82;21054;-93
2021/07/31 10:18:10;;;;;;;2.00;1.80;;;;;;;32.05;38.36;100194.95;1737968;82;21051;-89
2021/07/31 10:20:38;;;;;;;2.02;1.15;;;;;;;32.07;37.29;100198.94;1709383;82;21100;-89
2021/07/31 10:23:07;;;;;;;4.35;1.40;;;;;;;31.93;36.94;100193.52;1715600;82;21580;-93
2021/07/31 10:25:32;;;;;;;2.87;1.85;;;;;;;31.89;36.48;100204.08;1737943;81;21080;-90
2021/07/31 10:28:28;;;;;;;1.42;1.22;;;;;;;31.75;37.00;100193.86;1738795;82;21033;-89
2021/07/31 10:31:26;;;;;;;1.85;1.70;;;;;;;31.77;36.74;100192.79;1745326;81;21060;-91
2021/07/31 10:33:54;;;;;;;3.20;1.57;;;;;;;31.92;36.71;100189.08;1737518;82;21092;-88
2021/07/31 10:36:35;;;;;;;3.08;2.20;;;;;;;32.01;38.03;100189.35;1738765;82;21100;-89
2021/07/31 10:39:31;;;;;;;1.73;1.63;;;;;;;32.08;38.65;100192.05;1745391;81;21063;-93
2021/07/31 10:42:00;;;;;;;2.12;1.20;;;;;;;32.02;37.42;100190.94;1745357;82;21084;-93
2021/07/31 10:44:27;;;;;;;1.52;1.07;;;;;;;31.96;37.76;100189.85;1737576;82;21623;-89
2021/07/31 10:47:23;;;;;;;3.55;2.08;;;;;;;31.95;38.81;100198.16;1745571;81;21036;-92
2021/07/31 10:49:49;;;;;;;2.08;1.42;;;;;;;32.02;38.55;100189.52;1683431;82;21108;-93
2021/07/31 10:52:54;;;;;;;1.92;1.50;;;;;;;32.09;36.57;100190.80;1730822;82;21024;-89
2021/07/31 10:55:38;;;;;;;3.08;1.52;;;;;;;32.11;37.26;100188.96;1730587;82;21025;-93
2021/07/31 10:58:12;;;;;;;3.25;1.75;;;;;;;32.10;36.68;100181.11;1730680;82;21008;-92
2021/07/31 11:00:44;;;;;;;4.87;3.33;;;;;;;31.90;37.13;100181.68;1726518;82;21579;-89
2021/07/31 11:03:23;;;;;;;2.20;2.00;;;;;;;31.76;38.74;100182.73;1730938;82;21060;-92
2021/07/31 11:05:55;;;;;;;2.87;1.70;;;;;;;31.92;38.77;100174.95;1730682;82;21013;-92
2021/07/31 11:08:24;;;;;;;1.65;1.22;;;;;;;32.12;37.21;100167.94;1731073;81;21043;-89
2021/07/31 11:10:54;;;;;;;2.20;1.40;;;;;;;32.24;37.87;100166.49;1730571;82;21055;-89
2021/07/31 11:13:31;;;;;;;1.90;1.62;;;;;;;32.31;38.06;100163.52;1732138;82;21024;-88
2021/07/31 11:16:13;;;;;;;3.17;2.45;;;;;;;32.31;38.85;100155.05;1730735;82;21052;-92
2021/07/31 11:18:47;;;;;;;2.55;1.85;;;;;;;32.42;38.01;100161.28;1700897;82;21052;-88
2021/07/31 11:21:38;;;;;;;1.47;1.37;;;;;;;32.42;36.86;100156.22;1730841;82;21498;-93
2021/07/31 11:24:10;;;;;;;2.47;1.50;;;;;;;32.44;37.60;100153.13;1730752;82;21040;-92
2021/07/31 11:26:48;;;;;;;2.08;1.50;;;;;;;32.65;36.73;100159.61;1703357;82;21033;-89
2021/07/31 11:29:25;;;;;;;2.60;1.65;;;;;;;32.97;37.75;100154.00;1733699;78;21219;-92
2021/07/31 11:32:12;;;;;;;2.65;1.80;;;;;;;33.20;37.16;100157.92;1731405;82;21035;-90
2021/07/31 11:34:44;;;;;;;2.33;1.47;;;;;;;33.23;37.56;100155.62;1701536;82;21043;-93
2021/07/31 11:37:11;;;;;;;2.85;1.67;;;;;;;33.12;37.94;100155.10;1731655;82;21103;-91
2021/07/31 11:39:38;;;;;;;3.30;2.17;;;;;;;33.27;37.48;100154.92;1730551;82;21049;-89
2021/07/31 11:42:06;;;;;;;1.85;1.67;;;;;;;33.38;36.22;100152.63;1730660;82;21013;-89
2021/07/31 11:44:36;;;;;;;2.95;1.70;;;;;;;33.57;36.47;100153.77;1730744;82;21036;-92
2021/07/31 11:47:02;;;;;;;3.00;1.60;;;;;;;33.74;35.67;100151.70;1731123;82;21108;-92
2021/07/31 11:49:33;;;;;;;2.98;2.02;;;;;;;33.96;35.86;100150.49;1701889;82;21052;-88
2021/07/31 11:52:05;;;;;;;2.47;1.62;;;;;;;34.25;34.82;100143.42;1730737;82;21049;-89
2021/07/31 11:54:38;;;;;;;1.72;1.47;;;;;;;34.34;35.41;100144.16;1730616;82;21031;-90